Time;durP1;ratioP1;P1;durP2;ratioP2;P2;SDS_P1;SDS_P2;PMS_P1;PMS_P2;Temp;Humidity;BMP_temperature;BMP_pressure;BME280_temperature;BME280_humidity;BME280_pressure;Samples;Min_cycle;Max_cycle;Signal;HPM_P1;HPM_P2
2023/08/22 00:00:06;;;;;;;85.35;81.03;;;;;;;;;;5066832;28;20039;-61
2023/08/22 00:02:31;;;;;;;83.50;79.30;;;;;;;;;;5064385;28;20025;-62
2023/08/22 00:04:57;;;;;;;79.95;75.85;;;;;;;;;;5064002;28;20036;-62
2023/08/22 00:07:22;;;;;;;82.38;78.20;;;;;;;;;;5070251;28;20070;-61
2023/08/22 00:09:47;;;;;;;86.25;81.90;;;;;;;;;;5066083;28;20500;-61
2023/08/22 00:12:13;;;;;;;80.05;76.05;;;;;;;;;;5063924;28;20039;-61
2023/08/22 00:14:38;;;;;;;81.38;77.30;;;;;;;;;;5066416;28;20101;-61
2023/08/22 00:17:04;;;;;;;79.28;75.30;;;;;;;;;;5066903;28;20121;-61
2023/08/22 00:19:30;;;;;;;82.47;78.35;;;;;;;;;;5062459;28;20047;-61
2023/08/22 00:21:55;;;;;;;82.60;78.47;;;;;;;;;;5063332;28;20036;-61
2023/08/22 00:24:20;;;;;;;89.53;85.00;;;;;;;;;;5063990;28;20032;-61
2023/08/22 00:26:46;;;;;;;91.40;86.72;;;;;;;;;;5063690;28;20029;-61
2023/08/22 00:29:11;;;;;;;94.63;89.90;;;;;;;;;;5063320;28;20027;-61
2023/08/22 00:31:36;;;;;;;87.45;83.10;;;;;;;;;;5067105;28;20040;-61
2023/08/22 00:34:02;;;;;;;95.75;90.93;;;;;;;;;;5063303;28;20040;-61
2023/08/22 00:36:29;;;;;;;93.43;88.75;;;;;;;;;;5063054;28;20028;-61
2023/08/22 00:38:54;;;;;;;87.30;82.93;;;;;;;;;;5062070;28;20071;-61
2023/08/22 00:41:19;;;;;;;88.15;83.75;;;;;;;;;;5061751;28;20532;-61
2023/08/22 00:43:46;;;;;;;90.07;85.55;;;;;;;;;;5066145;28;20032;-61
2023/08/22 00:46:12;;;;;;;88.63;84.05;;;;;;;;;;5064790;28;20093;-62
2023/08/22 00:48:37;;;;;;;87.07;81.88;;;;;;;;;;5061718;28;20099;-61
2023/08/22 00:51:04;;;;;;;96.35;91.45;;;;;;;;;;5062677;28;20032;-61
2023/08/22 00:53:29;;;;;;;99.82;94.88;;;;;;;;;;5059629;28;20029;-61
2023/08/22 00:55:55;;;;;;;108.15;102.75;;;;;;;;;;5066049;28;20070;-61
2023/08/22 00:58:20;;;;;;;101.60;96.47;;;;;;;;;;5066272;28;20033;-61
2023/08/22 01:00:46;;;;;;;107.18;101.70;;;;;;;;;;5062200;28;20057;-61
2023/08/22 01:03:11;;;;;;;100.30;95.28;;;;;;;;;;5064156;28;20043;-61
2023/08/22 01:05:42;;;;;;;105.70;100.45;;;;;;;;;;5063366;28;20349;-61
2023/08/22 01:08:15;;;;;;;111.40;105.80;;;;;;;;;;5096936;27;20180;-61
2023/08/22 01:10:48;;;;;;;100.15;95.18;;;;;;;;;;5057053;28;20044;-61
2023/08/22 01:13:19;;;;;;;97.45;92.50;;;;;;;;;;5065329;28;20110;-61
2023/08/22 01:15:46;;;;;;;90.53;86.03;;;;;;;;;;5064760;28;20033;-61
2023/08/22 01:18:15;;;;;;;98.95;93.93;;;;;;;;;;5063303;28;20028;-61
2023/08/22 01:20:41;;;;;;;92.32;87.70;;;;;;;;;;5060030;28;20036;-61
2023/08/22 01:23:06;;;;;;;87.72;83.15;;;;;;;;;;5064669;28;20036;-61
2023/08/22 01:25:32;;;;;;;94.93;90.13;;;;;;;;;;5060247;28;20037;-62
2023/08/22 01:28:08;;;;;;;98.47;93.53;;;;;;;;;;5065324;28;20091;-62
2023/08/22 01:30:50;;;;;;;103.85;98.65;;;;;;;;;;5061906;28;20024;-61
2023/08/22 01:33:25;;;;;;;99.18;94.10;;;;;;;;;;5063812;28;20126;-61
2023/08/22 01:35:54;;;;;;;115.60;109.82;;;;;;;;;;5064398;28;20098;-61
2023/08/22 01:38:21;;;;;;;131.85;125.18;;;;;;;;;;5065423;28;20063;-61
2023/08/22 01:40:47;;;;;;;131.30;124.78;;;;;;;;;;5064562;28;20308;-62
2023/08/22 01:43:13;;;;;;;131.93;125.15;;;;;;;;;;5062976;28;20040;-61
2023/08/22 01:45:39;;;;;;;132.65;126.05;;;;;;;;;;5064904;28;20046;-62
2023/08/22 01:48:05;;;;;;;137.88;131.00;;;;;;;;;;5061447;28;20033;-62
2023/08/22 01:50:30;;;;;;;133.70;127.07;;;;;;;;;;5065062;28;20470;-62
2023/08/22 01:52:57;;;;;;;128.60;122.22;;;;;;;;;;5066880;28;20465;-62
2023/08/22 01:55:23;;;;;;;143.88;136.77;;;;;;;;;;5061521;28;20024;-62
2023/08/22 01:57:48;;;;;;;139.00;131.98;;;;;;;;;;5065046;28;20266;-62
2023/08/22 02:00:14;;;;;;;143.70;136.55;;;;;;;;;;5063526;28;20119;-62
2023/08/22 02:02:39;;;;;;;146.43;137.73;;;;;;;;;;5062624;28;20147;-61
2023/08/22 02:05:05;;;;;;;140.80;133.77;;;;;;;;;;5062693;28;20055;-62
2023/08/22 02:07:35;;;;;;;121.60;115.55;;;;;;;;;;5062668;28;20017;-62
2023/08/22 02:10:01;;;;;;;114.70;109.03;;;;;;;;;;5061871;28;20244;-62
2023/08/22 02:12:26;;;;;;;121.45;115.38;;;;;;;;;;5062431;28;20520;-62
2023/08/22 02:14:53;;;;;;;120.20;114.20;;;;;;;;;;5094279;28;20036;-62
2023/08/22 02:17:19;;;;;;;122.68;116.63;;;;;;;;;;5063534;28;20047;-62
2023/08/22 02:19:45;;;;;;;119.32;113.40;;;;;;;;;;5062865;28;20046;-66
2023/08/22 02:22:10;;;;;;;102.05;96.90;;;;;;;;;;5065622;28;20033;-65
2023/08/22 02:24:38;;;;;;;94.88;90.18;;;;;;;;;;5061531;28;20032;-65
2023/08/22 02:27:05;;;;;;;84.82;80.45;;;;;;;;;;5064312;28;20047;-66
2023/08/22 02:29:32;;;;;;;75.82;71.70;;;;;;;;;;5059597;28;20569;-66
2023/08/22 02:31:57;;;;;;;75.78;72.00;;;;;;;;;;5064238;28;20045;-66
2023/08/22 02:34:24;;;;;;;71.57;67.95;;;;;;;;;;5062347;28;20043;-66
2023/08/22 02:36:50;;;;;;;72.18;68.53;;;;;;;;;;5066527;28;20385;-66
2023/08/22 02:39:15;;;;;;;69.07;65.57;;;;;;;;;;5064046;28;20874;-66
2023/08/22 02:41:41;;;;;;;65.05;61.75;;;;;;;;;;5067399;28;20047;-62
2023/08/22 02:44:06;;;;;;;64.63;61.35;;;;;;;;;;5064936;28;20029;-62
2023/08/22 02:46:32;;;;;;;77.63;73.72;;;;;;;;;;5068222;28;20539;-63
2023/08/22 02:48:57;;;;;;;69.97;66.45;;;;;;;;;;5070398;28;20058;-62
2023/08/22 02:51:23;;;;;;;66.25;62.90;;;;;;;;;;5065899;28;20031;-62
2023/08/22 02:53:48;;;;;;;64.20;60.92;;;;;;;;;;5067651;28;20036;-62
2023/08/22 02:56:14;;;;;;;66.63;63.25;;;;;;;;;;5066302;28;20036;-62
2023/08/22 02:58:40;;;;;;;77.68;73.75;;;;;;;;;;5066370;28;20052;-62
2023/08/22 03:01:06;;;;;;;71.25;67.68;;;;;;;;;;5063194;28;20029;-63
2023/08/22 03:03:32;;;;;;;76.93;73.10;;;;;;;;;;5065155;28;20223;-62
2023/08/22 03:05:58;;;;;;;82.75;78.45;;;;;;;;;;5064546;28;20039;-63
2023/08/22 03:08:23;;;;;;;78.90;74.97;;;;;;;;;;5062937;28;20502;-62
2023/08/22 03:10:49;;;;;;;76.53;72.72;;;;;;;;;;5063230;28;20055;-62
2023/08/22 03:13:14;;;;;;;84.20;80.00;;;;;;;;;;5064232;28;20028;-63
2023/08/22 03:15:39;;;;;;;88.70;84.35;;;;;;;;;;5064414;28;20041;-63
2023/08/22 03:18:05;;;;;;;77.47;73.65;;;;;;;;;;5065902;28;20046;-63
2023/08/22 03:20:31;;;;;;;78.28;74.30;;;;;;;;;;5067093;28;20070;-62
2023/08/22 03:22:56;;;;;;;77.28;73.43;;;;;;;;;;5067339;28;20114;-62
2023/08/22 03:25:21;;;;;;;76.40;72.53;;;;;;;;;;5101487;27;20123;-63
2023/08/22 03:27:47;;;;;;;73.60;69.93;;;;;;;;;;5066657;28;20359;-63
2023/08/22 03:30:12;;;;;;;71.18;67.55;;;;;;;;;;5062485;28;20609;-63
2023/08/22 03:32:38;;;;;;;74.90;71.13;;;;;;;;;;5065625;28;20056;-63
2023/08/22 03:35:06;;;;;;;69.82;66.22;;;;;;;;;;5064504;28;20115;-62
2023/08/22 03:37:31;;;;;;;64.45;60.97;;;;;;;;;;5066002;28;20032;-62
2023/08/22 03:39:58;;;;;;;66.95;63.45;;;;;;;;;;5065278;28;20398;-62
2023/08/22 03:42:23;;;;;;;68.80;65.38;;;;;;;;;;5065608;28;20036;-63
2023/08/22 03:44:49;;;;;;;63.90;60.70;;;;;;;;;;5066309;28;21182;-62
2023/08/22 03:47:14;;;;;;;67.70;64.25;;;;;;;;;;5064944;28;20474;-63
2023/08/22 03:49:39;;;;;;;73.88;70.20;;;;;;;;;;5063086;28;20485;-63
2023/08/22 03:52:05;;;;;;;77.15;73.15;;;;;;;;;;5064826;28;20469;-63
2023/08/22 03:54:31;;;;;;;72.38;68.75;;;;;;;;;;5066371;28;20366;-62
2023/08/22 03:56:56;;;;;;;82.32;78.22;;;;;;;;;;5064565;28;20344;-62
2023/08/22 03:59:22;;;;;;;94.45;89.68;;;;;;;;;;5066576;28;20466;-63
2023/08/22 04:01:47;;;;;;;101.88;96.88;;;;;;;;;;5066068;28;20101;-62
2023/08/22 04:04:14;;;;;;;103.13;98.03;;;;;;;;;;5064903;28;20036;-62
2023/08/22 04:06:41;;;;;;;106.00;100.82;;;;;;;;;;5063420;28;20051;-62
2023/08/22 04:09:06;;;;;;;113.63;108.07;;;;;;;;;;5062949;28;20043;-62
2023/08/22 04:11:32;;;;;;;118.95;113.13;;;;;;;;;;5065805;28;20046;-62
2023/08/22 04:13:57;;;;;;;106.60;101.35;;;;;;;;;;5064688;28;20032;-62
2023/08/22 04:16:22;;;;;;;110.78;105.30;;;;;;;;;;5066972;28;20120;-63
2023/08/22 04:18:48;;;;;;;103.32;98.18;;;;;;;;;;5063433;28;20161;-62
2023/08/22 04:21:13;;;;;;;103.90;98.68;;;;;;;;;;5065095;28;20374;-62
2023/08/22 04:23:39;;;;;;;108.90;103.50;;;;;;;;;;5062197;28;20090;-62
2023/08/22 04:26:05;;;;;;;111.22;105.68;;;;;;;;;;5061250;28;20188;-63
2023/08/22 04:28:32;;;;;;;109.50;104.07;;;;;;;;;;5067084;28;20135;-67
2023/08/22 04:30:59;;;;;;;113.68;108.10;;;;;;;;;;5065172;28;20067;-67
2023/08/22 04:33:25;;;;;;;116.40;110.68;;;;;;;;;;5063686;28;20033;-68
2023/08/22 04:35:50;;;;;;;110.25;104.55;;;;;;;;;;5064874;28;20028;-67
2023/08/22 04:38:16;;;;;;;103.43;98.25;;;;;;;;;;5062088;28;20037;-68
2023/08/22 04:40:42;;;;;;;118.40;112.60;;;;;;;;;;5064359;28;20085;-68
2023/08/22 04:43:08;;;;;;;117.50;111.63;;;;;;;;;;5065834;28;20042;-67
2023/08/22 04:45:34;;;;;;;117.85;112.10;;;;;;;;;;5067076;28;20036;-68
2023/08/22 04:47:59;;;;;;;101.68;96.68;;;;;;;;;;5065138;28;20075;-68
2023/08/22 04:50:25;;;;;;;112.68;107.00;;;;;;;;;;5063762;28;20032;-66
2023/08/22 04:52:50;;;;;;;118.47;112.68;;;;;;;;;;5064800;28;20044;-68
2023/08/22 04:55:16;;;;;;;112.00;106.47;;;;;;;;;;5060191;28;20044;-67
2023/08/22 04:57:41;;;;;;;110.88;105.18;;;;;;;;;;5063039;28;20349;-68
2023/08/22 05:00:10;;;;;;;119.50;113.60;;;;;;;;;;5063715;28;20047;-67
2023/08/22 05:02:36;;;;;;;109.22;103.78;;;;;;;;;;5062823;28;20032;-67
2023/08/22 05:05:03;;;;;;;99.53;94.55;;;;;;;;;;5060862;28;20497;-68
2023/08/22 05:07:29;;;;;;;108.05;102.68;;;;;;;;;;5063781;28;20502;-68
2023/08/22 05:09:54;;;;;;;85.78;81.35;;;;;;;;;;5064238;28;20025;-67
2023/08/22 05:12:20;;;;;;;75.15;71.38;;;;;;;;;;5063206;28;20043;-67
2023/08/22 05:14:45;;;;;;;66.15;62.63;;;;;;;;;;5061748;28;20064;-67
2023/08/22 05:17:11;;;;;;;61.88;58.78;;;;;;;;;;5063761;28;20024;-67
2023/08/22 05:19:36;;;;;;;61.72;58.60;;;;;;;;;;5066345;28;20067;-67
2023/08/22 05:22:02;;;;;;;58.95;55.92;;;;;;;;;;5063603;28;20037;-68
2023/08/22 05:24:27;;;;;;;57.22;54.33;;;;;;;;;;5059324;28;20385;-67
2023/08/22 05:26:52;;;;;;;50.97;48.28;;;;;;;;;;5062887;28;20035;-67
2023/08/22 05:29:20;;;;;;;57.20;53.63;;;;;;;;;;5063511;28;20311;-67
2023/08/22 05:31:46;;;;;;;61.88;58.72;;;;;;;;;;5066798;28;20036;-67
2023/08/22 05:34:11;;;;;;;60.85;57.65;;;;;;;;;;5062665;28;20032;-67
2023/08/22 05:36:37;;;;;;;59.67;56.13;;;;;;;;;;5065529;28;20039;-62
2023/08/22 05:39:03;;;;;;;57.53;54.60;;;;;;;;;;5061819;28;20044;-62
2023/08/22 05:41:29;;;;;;;62.58;59.35;;;;;;;;;;5064600;28;20039;-61
2023/08/22 05:43:54;;;;;;;60.03;56.97;;;;;;;;;;5062894;28;20709;-62
2023/08/22 05:46:20;;;;;;;61.97;58.85;;;;;;;;;;5069923;28;20040;-61
2023/08/22 05:48:46;;;;;;;58.85;55.88;;;;;;;;;;5065763;28;20052;-62
2023/08/22 05:51:11;;;;;;;64.93;61.05;;;;;;;;;;5063430;28;20029;-62
2023/08/22 05:53:36;;;;;;;62.45;58.83;;;;;;;;;;5062109;28;20037;-61
2023/08/22 05:56:02;;;;;;;57.97;54.75;;;;;;;;;;5064479;28;20045;-61
2023/08/22 05:58:27;;;;;;;61.28;58.05;;;;;;;;;;5064374;28;20029;-61
2023/08/22 06:00:53;;;;;;;53.63;50.72;;;;;;;;;;5064335;28;20592;-61
2023/08/22 06:03:18;;;;;;;62.20;58.88;;;;;;;;;;5060238;28;20032;-62
2023/08/22 06:05:44;;;;;;;63.38;60.10;;;;;;;;;;5056041;28;20123;-62
2023/08/22 06:08:09;;;;;;;65.97;62.67;;;;;;;;;;5060038;28;20067;-62
2023/08/22 06:10:35;;;;;;;86.30;82.00;;;;;;;;;;5065247;28;20029;-62
2023/08/22 06:13:00;;;;;;;78.15;74.28;;;;;;;;;;5066186;28;20060;-62
2023/08/22 06:15:25;;;;;;;130.07;123.53;;;;;;;;;;5068691;28;20037;-67
2023/08/22 06:17:51;;;;;;;122.80;116.72;;;;;;;;;;5062872;28;20564;-67
2023/08/22 06:20:17;;;;;;;158.25;150.50;;;;;;;;;;5064477;28;20039;-68
2023/08/22 06:22:42;;;;;;;197.68;188.18;;;;;;;;;;5066987;28;20068;-67
2023/08/22 06:25:08;;;;;;;219.15;208.65;;;;;;;;;;5067031;28;20061;-67
2023/08/22 06:27:33;;;;;;;220.65;210.15;;;;;;;;;;5068427;28;20111;-67
2023/08/22 06:30:00;;;;;;;255.55;243.40;;;;;;;;;;5065827;28;20046;-68
2023/08/22 06:32:26;;;;;;;258.50;246.15;;;;;;;;;;5064598;28;20169;-67
2023/08/22 06:34:51;;;;;;;250.95;238.95;;;;;;;;;;5066951;28;20435;-67
2023/08/22 06:37:17;;;;;;;226.00;214.90;;;;;;;;;;5068139;28;20051;-67
2023/08/22 06:39:42;;;;;;;244.98;232.55;;;;;;;;;;5067062;28;20101;-67
2023/08/22 06:42:07;;;;;;;207.32;197.30;;;;;;;;;;5097661;27;20032;-68
2023/08/22 06:44:33;;;;;;;194.55;185.10;;;;;;;;;;5070483;28;20461;-68
2023/08/22 06:46:58;;;;;;;197.73;188.00;;;;;;;;;;5067997;28;20119;-67
2023/08/22 06:49:24;;;;;;;167.63;159.25;;;;;;;;;;5061542;28;20047;-67
2023/08/22 06:51:49;;;;;;;183.95;174.80;;;;;;;;;;5065490;28;20533;-68
2023/08/22 06:54:15;;;;;;;172.82;164.13;;;;;;;;;;5068868;28;20115;-68
2023/08/22 06:56:40;;;;;;;137.75;130.77;;;;;;;;;;5066617;28;20032;-68
2023/08/22 06:59:06;;;;;;;146.95;139.65;;;;;;;;;;5068406;28;20029;-67
2023/08/22 07:01:31;;;;;;;148.70;141.25;;;;;;;;;;5065101;28;20075;-68
2023/08/22 07:03:56;;;;;;;132.70;126.10;;;;;;;;;;5067597;28;20131;-68
2023/08/22 07:06:22;;;;;;;103.57;98.30;;;;;;;;;;5070031;28;20114;-68
2023/08/22 07:08:47;;;;;;;96.03;90.47;;;;;;;;;;5066187;28;20040;-68
2023/08/22 07:11:12;;;;;;;84.25;79.85;;;;;;;;;;5065466;28;20032;-68
2023/08/22 07:13:38;;;;;;;65.50;61.95;;;;;;;;;;5065414;28;20208;-67
2023/08/22 07:16:04;;;;;;;81.13;77.03;;;;;;;;;;5065463;28;20060;-68
2023/08/22 07:18:29;;;;;;;57.95;54.85;;;;;;;;;;5066198;28;20115;-67
2023/08/22 07:20:55;;;;;;;65.13;61.72;;;;;;;;;;5065211;28;20057;-67
2023/08/22 07:23:21;;;;;;;65.50;62.10;;;;;;;;;;5065150;28;20036;-67
2023/08/22 07:25:48;;;;;;;41.60;39.40;;;;;;;;;;5064797;28;20413;-67
2023/08/22 07:28:14;;;;;;;41.00;38.83;;;;;;;;;;5063475;28;20114;-67
2023/08/22 07:30:39;;;;;;;62.53;59.13;;;;;;;;;;5069173;28;20039;-67
2023/08/22 07:33:04;;;;;;;51.90;49.13;;;;;;;;;;5066129;28;20094;-66
2023/08/22 07:35:33;;;;;;;118.43;112.47;;;;;;;;;;5070049;28;20036;-68
2023/08/22 07:37:59;;;;;;;124.85;118.47;;;;;;;;;;5068453;28;20054;-67
2023/08/22 07:40:24;;;;;;;188.20;178.75;;;;;;;;;;5066540;28;20397;-67
2023/08/22 07:42:50;;;;;;;210.80;200.55;;;;;;;;;;5067438;28;20029;-68
2023/08/22 07:45:15;;;;;;;220.77;210.07;;;;;;;;;;5065507;28;20052;-67
2023/08/22 07:47:40;;;;;;;220.95;210.20;;;;;;;;;;5065034;28;20032;-67
2023/08/22 07:50:06;;;;;;;232.10;220.70;;;;;;;;;;5064720;28;20481;-67
2023/08/22 07:52:32;;;;;;;222.52;211.65;;;;;;;;;;5065407;28;20028;-67
2023/08/22 07:54:58;;;;;;;214.02;203.52;;;;;;;;;;5065536;28;20109;-61
2023/08/22 07:57:23;;;;;;;228.05;217.00;;;;;;;;;;5066593;28;20132;-67
2023/08/22 07:59:48;;;;;;;183.25;173.38;;;;;;;;;;5066097;28;20464;-66
2023/08/22 08:02:14;;;;;;;234.10;221.27;;;;;;;;;;5063162;28;20024;-68
2023/08/22 08:04:40;;;;;;;230.23;218.70;;;;;;;;;;5100580;27;20108;-68
2023/08/22 08:07:05;;;;;;;227.88;216.82;;;;;;;;;;5064560;28;20075;-68
2023/08/22 08:09:32;;;;;;;184.80;175.68;;;;;;;;;;5065418;28;20497;-69
2023/08/22 08:11:58;;;;;;;187.35;178.18;;;;;;;;;;5068324;28;20108;-68
2023/08/22 08:14:23;;;;;;;180.98;172.13;;;;;;;;;;5067105;28;20115;-69
2023/08/22 08:16:49;;;;;;;213.95;203.52;;;;;;;;;;5064096;28;20441;-67
2023/08/22 08:19:15;;;;;;;209.40;199.23;;;;;;;;;;5067029;28;20120;-69
2023/08/22 08:21:41;;;;;;;145.82;138.65;;;;;;;;;;5067172;28;20056;-68
2023/08/22 08:24:07;;;;;;;141.07;134.07;;;;;;;;;;5064452;28;20024;-67
2023/08/22 08:26:32;;;;;;;70.07;66.00;;;;;;;;;;5065058;28;20071;-66
2023/08/22 08:28:58;;;;;;;53.60;50.85;;;;;;;;;;5066465;28;20111;-67
2023/08/22 08:31:23;;;;;;;77.03;73.13;;;;;;;;;;5065376;28;20571;-66
2023/08/22 08:33:48;;;;;;;70.35;66.60;;;;;;;;;;5064914;28;20075;-67
2023/08/22 08:36:14;;;;;;;60.40;57.35;;;;;;;;;;5066041;28;20036;-67
2023/08/22 08:38:40;;;;;;;55.83;52.78;;;;;;;;;;5062404;28;20032;-67
2023/08/22 08:41:06;;;;;;;63.85;60.63;;;;;;;;;;5063148;28;20032;-67
2023/08/22 08:43:35;;;;;;;56.53;53.65;;;;;;;;;;5065920;28;20032;-67
2023/08/22 08:46:02;;;;;;;41.03;38.95;;;;;;;;;;5066653;28;20655;-67
2023/08/22 08:48:29;;;;;;;40.58;38.45;;;;;;;;;;5064309;28;20024;-61
2023/08/22 08:50:56;;;;;;;46.80;44.35;;;;;;;;;;5064609;28;20032;-61
2023/08/22 08:53:21;;;;;;;39.78;37.67;;;;;;;;;;5064890;28;20033;-68
2023/08/22 08:55:47;;;;;;;44.13;41.50;;;;;;;;;;5062906;28;20040;-68
2023/08/22 08:58:13;;;;;;;43.95;41.65;;;;;;;;;;5065288;28;20378;-68
2023/08/22 09:00:39;;;;;;;35.00;33.20;;;;;;;;;;5068108;28;20036;-68
2023/08/22 09:03:05;;;;;;;79.40;75.30;;;;;;;;;;5066467;28;20050;-68
2023/08/22 09:05:31;;;;;;;96.32;91.53;;;;;;;;;;5064843;28;20025;-68
2023/08/22 09:08:15;;;;;;;95.30;90.53;;;;;;;;;;5064582;28;20425;-68
2023/08/22 09:10:40;;;;;;;120.57;114.60;;;;;;;;;;5065740;28;20036;-68
2023/08/22 09:13:05;;;;;;;68.47;64.63;;;;;;;;;;5062099;28;20020;-69
2023/08/22 09:15:32;;;;;;;53.45;50.67;;;;;;;;;;5063715;28;20362;-69
2023/08/22 09:17:58;;;;;;;215.23;204.77;;;;;;;;;;5062203;28;20076;-68
2023/08/22 09:20:24;;;;;;;232.63;221.27;;;;;;;;;;5064731;28;20141;-66
2023/08/22 09:22:49;;;;;;;232.63;221.32;;;;;;;;;;5050443;28;20028;-67
2023/08/22 09:25:16;;;;;;;283.48;269.58;;;;;;;;;;5064778;28;20043;-68
2023/08/22 09:27:42;;;;;;;288.25;274.05;;;;;;;;;;5062336;28;20092;-69
2023/08/22 09:30:07;;;;;;;290.08;275.90;;;;;;;;;;5066365;28;20613;-68
2023/08/22 09:32:33;;;;;;;300.33;285.52;;;;;;;;;;5067582;28;20032;-68
2023/08/22 09:35:01;;;;;;;305.42;290.38;;;;;;;;;;5065273;28;20029;-68
2023/08/22 09:37:34;;;;;;;312.63;297.08;;;;;;;;;;5068996;28;20114;-68
2023/08/22 09:40:03;;;;;;;298.00;283.30;;;;;;;;;;5065217;28;20178;-68
2023/08/22 09:42:29;;;;;;;307.77;292.50;;;;;;;;;;5065893;28;20056;-68
2023/08/22 09:44:58;;;;;;;329.35;312.95;;;;;;;;;;5065176;28;20029;-68
2023/08/22 09:47:36;;;;;;;311.08;295.73;;;;;;;;;;5068809;28;20354;-68
2023/08/22 09:50:06;;;;;;;288.00;273.80;;;;;;;;;;5070933;28;20037;-68
2023/08/22 09:52:36;;;;;;;310.80;295.38;;;;;;;;;;5067239;28;20802;-68
2023/08/22 09:55:01;;;;;;;;;;;;;;;;;;5069740;28;20047;-68
2023/08/22 09:57:27;;;;;;;207.57;197.38;;;;;;;;;;5067714;28;19995;-68
2023/08/22 09:59:53;;;;;;;267.10;253.93;;;;;;;;;;5069370;28;20114;-68
2023/08/22 10:02:19;;;;;;;250.43;238.10;;;;;;;;;;5069185;28;20032;-69
2023/08/22 10:04:45;;;;;;;220.70;209.88;;;;;;;;;;5072805;28;20366;-68
2023/08/22 10:07:11;;;;;;;125.47;118.60;;;;;;;;;;5070313;28;20040;-68
2023/08/22 10:09:39;;;;;;;190.88;181.32;;;;;;;;;;5067970;28;20109;-68
2023/08/22 10:12:07;;;;;;;126.32;120.10;;;;;;;;;;5067612;28;20102;-67
2023/08/22 10:14:37;;;;;;;144.02;136.77;;;;;;;;;;5068052;28;20119;-68
2023/08/22 10:17:03;;;;;;;151.98;144.40;;;;;;;;;;5067365;28;20085;-69
2023/08/22 10:19:30;;;;;;;111.05;105.53;;;;;;;;;;5065992;28;20036;-62
2023/08/22 10:22:05;;;;;;;164.27;156.13;;;;;;;;;;5069181;28;20557;-62
2023/08/22 10:24:31;;;;;;;148.57;141.20;;;;;;;;;;5070683;28;20039;-63
2023/08/22 10:27:03;;;;;;;171.15;162.65;;;;;;;;;;5065660;28;20049;-62
2023/08/22 10:29:37;;;;;;;66.07;62.75;;;;;;;;;;5066658;28;20127;-62
2023/08/22 10:32:03;;;;;;;127.03;120.72;;;;;;;;;;5064579;28;20056;-63
2023/08/22 10:34:34;;;;;;;164.55;156.35;;;;;;;;;;5065263;28;20036;-62
2023/08/22 10:37:01;;;;;;;50.78;46.97;;;;;;;;;;5066536;28;20036;-63
2023/08/22 10:39:43;;;;;;;104.85;99.43;;;;;;;;;;5065032;28;20047;-63
2023/08/22 10:42:20;;;;;;;57.10;54.20;;;;;;;;;;5068075;28;20033;-67
2023/08/22 10:44:57;;;;;;;24.52;23.08;;;;;;;;;;5070342;28;20036;-62
2023/08/22 10:47:27;;;;;;;39.33;37.25;;;;;;;;;;5071728;28;20032;-67
2023/08/22 10:49:55;;;;;;;26.17;24.73;;;;;;;;;;5070479;28;20020;-63
2023/08/22 10:52:34;;;;;;;20.13;18.98;;;;;;;;;;5089584;28;20070;-62
2023/08/22 10:55:05;;;;;;;24.13;22.83;;;;;;;;;;5073906;28;20096;-63
2023/08/22 10:57:36;;;;;;;19.70;18.52;;;;;;;;;;5067860;28;20454;-67
2023/08/22 11:00:08;;;;;;;22.10;20.80;;;;;;;;;;5070382;28;20109;-67
2023/08/22 11:02:35;;;;;;;26.27;24.85;;;;;;;;;;5073384;28;20406;-66
2023/08/22 11:05:21;;;;;;;20.27;19.17;;;;;;;;;;5059684;28;20084;-66
2023/08/22 11:07:48;;;;;;;19.77;18.67;;;;;;;;;;5074040;28;20031;-67
2023/08/22 11:10:15;;;;;;;20.80;19.65;;;;;;;;;;5065135;28;20493;-68
2023/08/22 11:12:41;;;;;;;27.52;26.02;;;;;;;;;;5066567;28;20095;-67
2023/08/22 11:15:07;;;;;;;24.73;23.38;;;;;;;;;;5063748;28;20782;-69
2023/08/22 11:17:37;;;;;;;36.17;34.28;;;;;;;;;;5063416;28;20040;-69
2023/08/22 11:20:03;;;;;;;;;;;;;;;;;;5068173;28;20040;-63
2023/08/22 11:22:31;;;;;;;22.60;21.40;;;;;;;;;;5099149;27;19912;-62
2023/08/22 11:24:57;;;;;;;26.88;25.38;;;;;;;;;;5069008;28;20374;-62
2023/08/22 11:27:22;;;;;;;28.63;27.13;;;;;;;;;;5068641;28;20032;-63
2023/08/22 11:29:52;;;;;;;30.23;28.63;;;;;;;;;;5067103;28;20070;-64
2023/08/22 11:32:22;;;;;;;32.17;30.48;;;;;;;;;;5069693;28;20621;-64
2023/08/22 11:34:53;;;;;;;21.50;20.30;;;;;;;;;;5065759;28;20033;-64
2023/08/22 11:37:19;;;;;;;26.55;24.10;;;;;;;;;;5066619;28;20115;-64
2023/08/22 11:39:48;;;;;;;17.85;16.85;;;;;;;;;;5066225;28;20089;-64
2023/08/22 11:42:15;;;;;;;31.10;29.27;;;;;;;;;;5063550;28;20029;-64
2023/08/22 11:45:03;;;;;;;27.63;25.88;;;;;;;;;;5066887;28;20485;-64
2023/08/22 11:47:40;;;;;;;24.13;22.75;;;;;;;;;;5066753;28;20040;-64
2023/08/22 11:50:06;;;;;;;16.98;16.02;;;;;;;;;;5067359;28;20081;-64
2023/08/22 11:52:32;;;;;;;19.67;18.58;;;;;;;;;;5066343;28;20115;-64
2023/08/22 11:55:05;;;;;;;18.40;17.27;;;;;;;;;;5067434;28;20056;-64
2023/08/22 11:57:32;;;;;;;20.33;19.23;;;;;;;;;;5066314;28;20054;-64
2023/08/22 12:00:00;;;;;;;23.55;22.25;;;;;;;;;;5067970;28;20463;-63
2023/08/22 12:02:26;;;;;;;17.55;16.50;;;;;;;;;;5067292;28;20527;-63
2023/08/22 12:04:55;;;;;;;17.15;16.15;;;;;;;;;;5067605;28;20025;-64
2023/08/22 12:07:21;;;;;;;18.40;17.40;;;;;;;;;;5063795;28;20067;-63
2023/08/22 12:10:03;;;;;;;16.27;15.38;;;;;;;;;;5063002;28;20410;-63
2023/08/22 12:12:32;;;;;;;16.55;15.60;;;;;;;;;;5066125;28;20093;-63
2023/08/22 12:14:59;;;;;;;16.98;15.98;;;;;;;;;;5067673;28;20036;-63
2023/08/22 12:17:24;;;;;;;16.95;15.95;;;;;;;;;;5063582;28;20377;-64
2023/08/22 12:19:50;;;;;;;17.15;16.15;;;;;;;;;;5061616;28;20029;-69
2023/08/22 12:22:15;;;;;;;22.58;21.35;;;;;;;;;;5067082;28;20405;-64
2023/08/22 12:24:44;;;;;;;20.42;19.23;;;;;;;;;;5064542;28;20035;-63
2023/08/22 12:27:11;;;;;;;19.15;18.05;;;;;;;;;;5097113;27;20040;-63
2023/08/22 12:29:38;;;;;;;16.15;15.25;;;;;;;;;;5065603;28;20098;-64
2023/08/22 12:32:03;;;;;;;18.55;17.52;;;;;;;;;;5065093;28;20067;-63
2023/08/22 12:34:28;;;;;;;19.52;18.42;;;;;;;;;;5063795;28;20325;-63
2023/08/22 12:36:54;;;;;;;29.20;27.60;;;;;;;;;;5065137;28;20061;-64
2023/08/22 12:39:19;;;;;;;19.95;18.85;;;;;;;;;;5065208;28;20086;-62
2023/08/22 12:41:44;;;;;;;32.20;30.40;;;;;;;;;;5065366;28;20487;-63
2023/08/22 12:44:10;;;;;;;34.85;33.05;;;;;;;;;;5065021;28;20361;-64
2023/08/22 12:46:35;;;;;;;35.90;34.05;;;;;;;;;;5070019;28;20260;-64
2023/08/22 12:49:01;;;;;;;31.25;29.63;;;;;;;;;;5075726;28;20046;-66
2023/08/22 12:51:26;;;;;;;41.25;39.15;;;;;;;;;;5076229;28;20044;-68
2023/08/22 12:53:51;;;;;;;39.42;37.33;;;;;;;;;;5063324;28;20052;-68
2023/08/22 12:56:17;;;;;;;31.02;29.42;;;;;;;;;;5066399;28;20040;-68
2023/08/22 12:58:44;;;;;;;35.63;33.35;;;;;;;;;;5063885;28;20463;-68
2023/08/22 13:01:09;;;;;;;33.70;31.90;;;;;;;;;;5063676;28;20152;-67
2023/08/22 13:03:34;;;;;;;33.60;31.80;;;;;;;;;;5063664;28;20715;-67
2023/08/22 13:06:01;;;;;;;43.33;41.13;;;;;;;;;;5065889;28;20051;-67
2023/08/22 13:08:26;;;;;;;41.10;39.00;;;;;;;;;;5062693;28;20328;-64
2023/08/22 13:10:53;;;;;;;37.08;35.17;;;;;;;;;;5067008;28;20803;-64
2023/08/22 13:13:19;;;;;;;49.95;47.35;;;;;;;;;;5064964;28;20051;-64
2023/08/22 13:15:44;;;;;;;44.88;42.58;;;;;;;;;;5062705;28;20029;-64
2023/08/22 13:18:10;;;;;;;39.47;37.40;;;;;;;;;;5061704;28;20037;-64
2023/08/22 13:20:36;;;;;;;40.05;37.97;;;;;;;;;;5062934;28;20028;-64
2023/08/22 13:23:01;;;;;;;47.38;44.97;;;;;;;;;;5062073;28;20518;-64
2023/08/22 13:25:27;;;;;;;41.25;39.13;;;;;;;;;;5062272;28;20707;-64
2023/08/22 13:27:52;;;;;;;42.05;39.53;;;;;;;;;;5064538;28;20131;-64
2023/08/22 13:30:17;;;;;;;35.47;33.58;;;;;;;;;;5063274;28;20363;-64
2023/08/22 13:32:43;;;;;;;38.95;36.88;;;;;;;;;;5060089;28;20370;-65
2023/08/22 13:35:14;;;;;;;37.47;35.58;;;;;;;;;;5067158;28;20377;-64
2023/08/22 13:37:41;;;;;;;37.58;35.65;;;;;;;;;;5067482;28;20064;-64
2023/08/22 13:40:07;;;;;;;39.40;37.35;;;;;;;;;;5062412;28;20045;-64
2023/08/22 13:42:32;;;;;;;36.42;34.53;;;;;;;;;;5064482;28;20081;-64
2023/08/22 13:44:58;;;;;;;35.05;33.25;;;;;;;;;;5061921;28;20040;-64
2023/08/22 13:47:24;;;;;;;33.65;31.90;;;;;;;;;;5062902;28;20035;-64
2023/08/22 13:49:50;;;;;;;35.47;33.65;;;;;;;;;;5066459;28;20032;-64
2023/08/22 13:52:15;;;;;;;25.52;24.13;;;;;;;;;;5068009;28;20043;-64
2023/08/22 13:54:41;;;;;;;17.80;16.80;;;;;;;;;;5065443;28;20028;-64
2023/08/22 13:57:06;;;;;;;23.33;22.02;;;;;;;;;;5065933;28;20170;-64
2023/08/22 13:59:31;;;;;;;27.00;25.50;;;;;;;;;;5062384;28;20132;-64
2023/08/22 14:01:57;;;;;;;26.95;25.52;;;;;;;;;;5059924;28;20237;-64
2023/08/22 14:04:22;;;;;;;27.92;26.42;;;;;;;;;;5062462;28;20522;-64